sensor_id;sensor_type;location;lat;lon;timestamp;P1;durP1;ratioP1;P2;durP2;ratioP2
61009;SDS011;46897;55.340;86.082;2023-04-01T00:00:18;7.97;;;3.05;;
61009;SDS011;46897;55.340;86.082;2023-04-01T00:02:49;7.05;;;3.17;;
61009;SDS011;46897;55.340;86.082;2023-04-01T00:05:18;6.97;;;2.88;;
61009;SDS011;46897;55.340;86.082;2023-04-01T00:07:48;12.68;;;4.07;;
61009;SDS011;46897;55.340;86.082;2023-04-01T00:10:17;13.82;;;3.15;;
61009;SDS011;46897;55.340;86.082;2023-04-01T00:12:48;13.15;;;3.97;;
61009;SDS011;46897;55.340;86.082;2023-04-01T00:15:17;10.75;;;3.53;;
61009;SDS011;46897;55.340;86.082;2023-04-01T00:17:47;12.32;;;3.00;;
61009;SDS011;46897;55.340;86.082;2023-04-01T00:20:17;12.98;;;3.50;;
61009;SDS011;46897;55.340;86.082;2023-04-01T00:22:46;13.50;;;4.18;;
61009;SDS011;46897;55.340;86.082;2023-04-01T00:25:16;11.02;;;3.80;;
61009;SDS011;46897;55.340;86.082;2023-04-01T00:27:46;21.98;;;3.53;;
61009;SDS011;46897;55.340;86.082;2023-04-01T00:30:17;11.23;;;3.33;;
61009;SDS011;46897;55.340;86.082;2023-04-01T00:32:47;12.25;;;3.63;;
61009;SDS011;46897;55.340;86.082;2023-04-01T00:35:20;18.67;;;3.70;;
61009;SDS011;46897;55.340;86.082;2023-04-01T00:37:49;15.98;;;5.20;;
61009;SDS011;46897;55.340;86.082;2023-04-01T00:40:26;10.98;;;4.32;;
61009;SDS011;46897;55.340;86.082;2023-04-01T00:42:59;16.70;;;5.05;;
61009;SDS011;46897;55.340;86.082;2023-04-01T00:45:30;20.58;;;4.43;;
61009;SDS011;46897;55.340;86.082;2023-04-01T00:48:04;13.07;;;4.38;;
61009;SDS011;46897;55.340;86.082;2023-04-01T00:50:38;15.48;;;4.65;;
61009;SDS011;46897;55.340;86.082;2023-04-01T00:53:10;26.63;;;7.80;;
61009;SDS011;46897;55.340;86.082;2023-04-01T00:55:42;13.07;;;3.85;;
61009;SDS011;46897;55.340;86.082;2023-04-01T00:58:20;11.43;;;3.78;;
61009;SDS011;46897;55.340;86.082;2023-04-01T01:00:52;17.15;;;4.35;;
61009;SDS011;46897;55.340;86.082;2023-04-01T01:03:23;9.90;;;3.35;;
61009;SDS011;46897;55.340;86.082;2023-04-01T01:06:06;11.52;;;4.07;;
61009;SDS011;46897;55.340;86.082;2023-04-01T01:08:48;11.10;;;3.35;;
61009;SDS011;46897;55.340;86.082;2023-04-01T01:11:35;21.88;;;4.15;;
61009;SDS011;46897;55.340;86.082;2023-04-01T01:14:13;19.48;;;3.92;;
61009;SDS011;46897;55.340;86.082;2023-04-01T01:16:53;7.88;;;2.65;;
61009;SDS011;46897;55.340;86.082;2023-04-01T01:19:47;10.20;;;4.20;;
61009;SDS011;46897;55.340;86.082;2023-04-01T01:25:47;14.05;;;3.95;;
61009;SDS011;46897;55.340;86.082;2023-04-01T01:28:44;9.30;;;2.60;;
61009;SDS011;46897;55.340;86.082;2023-04-01T01:31:32;8.50;;;2.85;;
61009;SDS011;46897;55.340;86.082;2023-04-01T01:34:09;11.88;;;2.47;;
61009;SDS011;46897;55.340;86.082;2023-04-01T01:36:55;7.57;;;2.53;;
61009;SDS011;46897;55.340;86.082;2023-04-01T01:39:36;11.25;;;2.42;;
61009;SDS011;46897;55.340;86.082;2023-04-01T01:42:09;6.82;;;2.63;;
61009;SDS011;46897;55.340;86.082;2023-04-01T01:44:44;8.90;;;3.22;;
61009;SDS011;46897;55.340;86.082;2023-04-01T01:47:17;15.55;;;3.20;;
61009;SDS011;46897;55.340;86.082;2023-04-01T01:49:50;13.88;;;3.97;;
61009;SDS011;46897;55.340;86.082;2023-04-01T01:52:27;12.23;;;3.70;;
61009;SDS011;46897;55.340;86.082;2023-04-01T01:54:57;10.18;;;2.72;;
61009;SDS011;46897;55.340;86.082;2023-04-01T01:57:28;12.85;;;3.10;;
61009;SDS011;46897;55.340;86.082;2023-04-01T02:00:02;11.38;;;3.25;;
61009;SDS011;46897;55.340;86.082;2023-04-01T15:13:55;39.10;;;10.52;;
61009;SDS011;46897;55.340;86.082;2023-04-01T15:16:34;38.40;;;10.88;;
61009;SDS011;46897;55.340;86.082;2023-04-01T15:19:17;36.33;;;8.90;;
61009;SDS011;46897;55.340;86.082;2023-04-01T15:22:01;27.15;;;7.88;;
61009;SDS011;46897;55.340;86.082;2023-04-01T15:24:47;26.92;;;7.65;;
61009;SDS011;46897;55.340;86.082;2023-04-01T15:27:33;28.95;;;7.13;;
61009;SDS011;46897;55.340;86.082;2023-04-01T15:36:20;27.20;;;6.88;;
61009;SDS011;46897;55.340;86.082;2023-04-01T15:39:01;25.60;;;7.72;;
61009;SDS011;46897;55.340;86.082;2023-04-01T15:41:43;22.17;;;6.50;;
61009;SDS011;46897;55.340;86.082;2023-04-01T15:44:46;19.00;;;5.18;;
61009;SDS011;46897;55.340;86.082;2023-04-01T15:47:33;64.43;;;17.60;;
61009;SDS011;46897;55.340;86.082;2023-04-01T15:53:06;138.27;;;34.60;;
61009;SDS011;46897;55.340;86.082;2023-04-01T15:55:48;163.90;;;41.85;;
61009;SDS011;46897;55.340;86.082;2023-04-01T15:58:28;232.90;;;64.50;;
61009;SDS011;46897;55.340;86.082;2023-04-01T16:01:13;198.80;;;56.10;;
61009;SDS011;46897;55.340;86.082;2023-04-01T16:03:54;214.85;;;57.15;;
61009;SDS011;46897;55.340;86.082;2023-04-01T16:06:33;225.57;;;61.35;;
61009;SDS011;46897;55.340;86.082;2023-04-01T16:09:39;228.35;;;61.72;;
61009;SDS011;46897;55.340;86.082;2023-04-01T16:12:24;233.35;;;62.33;;
61009;SDS011;46897;55.340;86.082;2023-04-01T16:15:14;229.13;;;64.72;;
61009;SDS011;46897;55.340;86.082;2023-04-01T16:21:00;251.45;;;66.28;;
61009;SDS011;46897;55.340;86.082;2023-04-01T16:26:06;203.00;;;52.92;;
61009;SDS011;46897;55.340;86.082;2023-04-01T16:28:43;189.48;;;58.53;;
61009;SDS011;46897;55.340;86.082;2023-04-01T16:31:30;209.57;;;55.63;;
61009;SDS011;46897;55.340;86.082;2023-04-01T16:34:08;189.00;;;55.97;;
61009;SDS011;46897;55.340;86.082;2023-04-01T16:36:45;237.63;;;64.85;;
61009;SDS011;46897;55.340;86.082;2023-04-01T16:39:22;240.00;;;65.10;;
61009;SDS011;46897;55.340;86.082;2023-04-01T16:42:08;208.85;;;59.47;;
61009;SDS011;46897;55.340;86.082;2023-04-01T16:47:46;217.35;;;61.40;;
61009;SDS011;46897;55.340;86.082;2023-04-01T16:50:19;219.40;;;60.35;;
61009;SDS011;46897;55.340;86.082;2023-04-01T16:53:02;245.40;;;68.28;;
61009;SDS011;46897;55.340;86.082;2023-04-01T16:55:46;228.10;;;64.63;;
61009;SDS011;46897;55.340;86.082;2023-04-01T16:58:21;236.30;;;64.03;;
61009;SDS011;46897;55.340;86.082;2023-04-01T17:00:55;202.40;;;57.75;;
61009;SDS011;46897;55.340;86.082;2023-04-01T17:03:30;207.85;;;60.90;;
61009;SDS011;46897;55.340;86.082;2023-04-01T17:06:07;197.30;;;57.80;;
61009;SDS011;46897;55.340;86.082;2023-04-01T17:08:53;199.65;;;54.85;;
61009;SDS011;46897;55.340;86.082;2023-04-01T17:11:35;206.70;;;55.67;;
61009;SDS011;46897;55.340;86.082;2023-04-01T17:14:11;186.00;;;53.00;;
61009;SDS011;46897;55.340;86.082;2023-04-01T17:22:28;151.27;;;46.85;;
61009;SDS011;46897;55.340;86.082;2023-04-01T17:25:08;187.82;;;51.10;;
61009;SDS011;46897;55.340;86.082;2023-04-01T17:27:50;180.80;;;52.92;;
61009;SDS011;46897;55.340;86.082;2023-04-01T17:30:28;180.30;;;52.30;;
61009;SDS011;46897;55.340;86.082;2023-04-01T17:36:04;174.07;;;51.70;;
61009;SDS011;46897;55.340;86.082;2023-04-01T17:38:48;184.15;;;49.90;;
61009;SDS011;46897;55.340;86.082;2023-04-01T17:41:41;187.88;;;49.58;;
61009;SDS011;46897;55.340;86.082;2023-04-01T17:44:17;181.18;;;47.67;;
61009;SDS011;46897;55.340;86.082;2023-04-01T17:47:02;183.85;;;47.78;;
61009;SDS011;46897;55.340;86.082;2023-04-01T17:49:42;162.02;;;49.17;;
61009;SDS011;46897;55.340;86.082;2023-04-01T17:52:19;161.32;;;48.50;;
61009;SDS011;46897;55.340;86.082;2023-04-01T17:54:56;169.48;;;46.42;;
61009;SDS011;46897;55.340;86.082;2023-04-01T17:57:50;157.90;;;43.08;;
61009;SDS011;46897;55.340;86.082;2023-04-01T18:00:24;172.20;;;45.60;;
61009;SDS011;46897;55.340;86.082;2023-04-01T18:03:20;147.82;;;38.70;;
61009;SDS011;46897;55.340;86.082;2023-04-01T18:06:11;135.02;;;39.85;;
61009;SDS011;46897;55.340;86.082;2023-04-01T18:11:26;113.55;;;37.22;;
61009;SDS011;46897;55.340;86.082;2023-04-01T18:14:19;128.07;;;37.83;;
61009;SDS011;46897;55.340;86.082;2023-04-01T18:17:04;124.60;;;38.05;;
61009;SDS011;46897;55.340;86.082;2023-04-01T18:19:47;109.68;;;33.85;;
61009;SDS011;46897;55.340;86.082;2023-04-01T18:22:28;117.55;;;35.35;;
61009;SDS011;46897;55.340;86.082;2023-04-01T18:25:10;138.13;;;41.63;;
61009;SDS011;46897;55.340;86.082;2023-04-01T18:27:45;137.65;;;39.67;;
61009;SDS011;46897;55.340;86.082;2023-04-01T18:30:22;152.82;;;41.13;;
61009;SDS011;46897;55.340;86.082;2023-04-01T18:32:58;131.20;;;40.72;;
61009;SDS011;46897;55.340;86.082;2023-04-01T18:35:34;154.13;;;41.20;;
61009;SDS011;46897;55.340;86.082;2023-04-01T18:38:18;144.55;;;39.78;;
61009;SDS011;46897;55.340;86.082;2023-04-01T18:41:01;131.88;;;39.00;;
61009;SDS011;46897;55.340;86.082;2023-04-01T18:43:43;126.40;;;33.55;;
61009;SDS011;46897;55.340;86.082;2023-04-01T18:46:26;117.60;;;34.42;;
61009;SDS011;46897;55.340;86.082;2023-04-01T18:49:05;116.03;;;33.33;;
61009;SDS011;46897;55.340;86.082;2023-04-01T18:51:43;118.03;;;33.80;;
61009;SDS011;46897;55.340;86.082;2023-04-01T18:54:17;106.55;;;31.17;;
61009;SDS011;46897;55.340;86.082;2023-04-01T18:56:59;112.18;;;29.70;;
61009;SDS011;46897;55.340;86.082;2023-04-01T18:59:37;100.32;;;26.98;;
61009;SDS011;46897;55.340;86.082;2023-04-01T19:02:16;93.97;;;25.03;;
61009;SDS011;46897;55.340;86.082;2023-04-01T19:04:56;76.88;;;23.80;;
61009;SDS011;46897;55.340;86.082;2023-04-01T19:07:42;79.43;;;22.48;;
61009;SDS011;46897;55.340;86.082;2023-04-01T19:10:21;78.35;;;22.23;;
61009;SDS011;46897;55.340;86.082;2023-04-01T19:13:07;83.38;;;22.95;;
61009;SDS011;46897;55.340;86.082;2023-04-01T19:15:44;71.03;;;21.05;;
61009;SDS011;46897;55.340;86.082;2023-04-01T19:21:21;62.10;;;18.85;;
61009;SDS011;46897;55.340;86.082;2023-04-01T19:24:09;74.13;;;21.65;;
61009;SDS011;46897;55.340;86.082;2023-04-01T19:26:48;80.25;;;21.58;;
61009;SDS011;46897;55.340;86.082;2023-04-01T19:29:28;77.05;;;25.42;;
61009;SDS011;46897;55.340;86.082;2023-04-01T19:32:12;63.30;;;21.90;;
61009;SDS011;46897;55.340;86.082;2023-04-01T19:34:56;76.38;;;23.10;;
61009;SDS011;46897;55.340;86.082;2023-04-01T19:37:37;74.57;;;22.33;;
61009;SDS011;46897;55.340;86.082;2023-04-01T19:40:15;94.88;;;27.50;;
61009;SDS011;46897;55.340;86.082;2023-04-01T19:43:01;85.32;;;26.38;;
61009;SDS011;46897;55.340;86.082;2023-04-01T19:45:38;93.38;;;26.38;;
61009;SDS011;46897;55.340;86.082;2023-04-01T19:48:16;92.20;;;27.52;;
61009;SDS011;46897;55.340;86.082;2023-04-01T19:51:03;97.32;;;27.65;;
61009;SDS011;46897;55.340;86.082;2023-04-01T19:53:37;111.80;;;28.58;;
61009;SDS011;46897;55.340;86.082;2023-04-01T19:56:15;103.72;;;29.27;;
61009;SDS011;46897;55.340;86.082;2023-04-01T19:58:47;96.95;;;27.45;;
61009;SDS011;46897;55.340;86.082;2023-04-01T20:01:24;86.38;;;26.33;;
61009;SDS011;46897;55.340;86.082;2023-04-01T20:04:11;79.25;;;23.55;;
61009;SDS011;46897;55.340;86.082;2023-04-01T20:06:48;78.63;;;20.77;;
61009;SDS011;46897;55.340;86.082;2023-04-01T20:09:32;85.90;;;22.55;;
61009;SDS011;46897;55.340;86.082;2023-04-01T20:12:17;72.85;;;23.15;;
61009;SDS011;46897;55.340;86.082;2023-04-01T20:15:02;72.90;;;21.40;;
61009;SDS011;46897;55.340;86.082;2023-04-01T20:17:33;79.85;;;23.83;;
61009;SDS011;46897;55.340;86.082;2023-04-01T20:20:17;72.97;;;23.40;;
61009;SDS011;46897;55.340;86.082;2023-04-01T20:25:55;70.28;;;24.63;;
61009;SDS011;46897;55.340;86.082;2023-04-01T20:28:30;96.70;;;28.33;;
61009;SDS011;46897;55.340;86.082;2023-04-01T20:31:25;89.65;;;25.38;;
61009;SDS011;46897;55.340;86.082;2023-04-01T20:34:22;85.22;;;25.35;;
61009;SDS011;46897;55.340;86.082;2023-04-01T20:37:06;70.72;;;23.00;;
61009;SDS011;46897;55.340;86.082;2023-04-01T20:46:06;70.90;;;21.85;;
61009;SDS011;46897;55.340;86.082;2023-04-01T20:48:53;62.83;;;19.50;;
61009;SDS011;46897;55.340;86.082;2023-04-01T20:51:43;62.67;;;19.83;;
61009;SDS011;46897;55.340;86.082;2023-04-01T20:54:32;54.08;;;19.33;;
61009;SDS011;46897;55.340;86.082;2023-04-01T20:57:11;68.38;;;21.00;;
61009;SDS011;46897;55.340;86.082;2023-04-01T20:59:49;70.85;;;22.17;;
61009;SDS011;46897;55.340;86.082;2023-04-01T21:02:34;67.75;;;19.88;;
61009;SDS011;46897;55.340;86.082;2023-04-01T21:05:31;65.28;;;20.35;;
61009;SDS011;46897;55.340;86.082;2023-04-01T21:08:23;74.18;;;19.55;;
61009;SDS011;46897;55.340;86.082;2023-04-01T21:11:04;55.17;;;15.90;;
61009;SDS011;46897;55.340;86.082;2023-04-01T21:13:47;42.20;;;15.18;;
61009;SDS011;46897;55.340;86.082;2023-04-01T21:16:35;43.83;;;14.05;;
61009;SDS011;46897;55.340;86.082;2023-04-01T21:19:16;47.13;;;13.50;;
61009;SDS011;46897;55.340;86.082;2023-04-01T21:22:07;39.55;;;13.35;;
61009;SDS011;46897;55.340;86.082;2023-04-01T21:25:03;46.10;;;13.30;;
61009;SDS011;46897;55.340;86.082;2023-04-01T21:27:49;52.13;;;13.85;;
61009;SDS011;46897;55.340;86.082;2023-04-01T21:30:38;43.38;;;14.07;;
61009;SDS011;46897;55.340;86.082;2023-04-01T21:33:38;59.65;;;14.95;;
61009;SDS011;46897;55.340;86.082;2023-04-01T21:36:19;81.68;;;21.40;;
61009;SDS011;46897;55.340;86.082;2023-04-01T21:38:59;107.45;;;24.85;;
61009;SDS011;46897;55.340;86.082;2023-04-01T21:41:48;56.10;;;16.98;;
61009;SDS011;46897;55.340;86.082;2023-04-01T21:44:36;46.45;;;14.48;;
61009;SDS011;46897;55.340;86.082;2023-04-01T21:47:36;50.10;;;15.63;;
61009;SDS011;46897;55.340;86.082;2023-04-01T21:50:46;56.35;;;14.20;;
61009;SDS011;46897;55.340;86.082;2023-04-01T21:53:44;47.33;;;14.13;;
61009;SDS011;46897;55.340;86.082;2023-04-01T21:56:45;42.45;;;14.20;;
61009;SDS011;46897;55.340;86.082;2023-04-01T22:02:56;54.47;;;14.15;;
61009;SDS011;46897;55.340;86.082;2023-04-01T22:05:55;40.20;;;13.93;;
61009;SDS011;46897;55.340;86.082;2023-04-01T22:08:33;53.70;;;16.45;;
61009;SDS011;46897;55.340;86.082;2023-04-01T22:11:18;56.03;;;17.50;;
61009;SDS011;46897;55.340;86.082;2023-04-01T22:13:59;49.90;;;16.98;;
61009;SDS011;46897;55.340;86.082;2023-04-01T22:16:36;59.97;;;16.33;;
61009;SDS011;46897;55.340;86.082;2023-04-01T22:19:17;48.63;;;13.20;;
61009;SDS011;46897;55.340;86.082;2023-04-01T22:21:53;47.47;;;14.57;;
61009;SDS011;46897;55.340;86.082;2023-04-01T22:24:41;51.22;;;15.70;;
61009;SDS011;46897;55.340;86.082;2023-04-01T22:27:21;62.63;;;16.70;;
61009;SDS011;46897;55.340;86.082;2023-04-01T22:29:58;55.50;;;17.55;;
61009;SDS011;46897;55.340;86.082;2023-04-01T22:32:36;67.57;;;18.77;;
61009;SDS011;46897;55.340;86.082;2023-04-01T22:35:16;58.25;;;18.17;;
61009;SDS011;46897;55.340;86.082;2023-04-01T22:37:58;60.17;;;18.92;;
61009;SDS011;46897;55.340;86.082;2023-04-01T22:40:38;66.20;;;18.98;;
61009;SDS011;46897;55.340;86.082;2023-04-01T22:43:15;64.30;;;18.85;;
61009;SDS011;46897;55.340;86.082;2023-04-01T22:46:02;60.47;;;19.40;;
61009;SDS011;46897;55.340;86.082;2023-04-01T22:48:44;51.03;;;18.60;;
61009;SDS011;46897;55.340;86.082;2023-04-01T22:51:18;56.97;;;18.10;;
61009;SDS011;46897;55.340;86.082;2023-04-01T22:53:57;62.28;;;19.02;;
61009;SDS011;46897;55.340;86.082;2023-04-01T22:56:34;56.13;;;16.40;;
61009;SDS011;46897;55.340;86.082;2023-04-01T22:59:08;63.78;;;18.85;;
61009;SDS011;46897;55.340;86.082;2023-04-01T23:01:44;66.55;;;18.58;;
61009;SDS011;46897;55.340;86.082;2023-04-01T23:04:21;63.97;;;20.23;;
61009;SDS011;46897;55.340;86.082;2023-04-01T23:06:55;74.43;;;20.67;;
61009;SDS011;46897;55.340;86.082;2023-04-01T23:09:28;88.50;;;25.40;;
61009;SDS011;46897;55.340;86.082;2023-04-01T23:11:59;83.55;;;24.70;;
61009;SDS011;46897;55.340;86.082;2023-04-01T23:14:37;90.45;;;27.98;;
61009;SDS011;46897;55.340;86.082;2023-04-01T23:17:26;105.60;;;28.88;;
61009;SDS011;46897;55.340;86.082;2023-04-01T23:20:07;118.63;;;34.38;;
61009;SDS011;46897;55.340;86.082;2023-04-01T23:22:46;124.10;;;35.33;;
61009;SDS011;46897;55.340;86.082;2023-04-01T23:25:27;99.75;;;34.95;;
61009;SDS011;46897;55.340;86.082;2023-04-01T23:28:17;117.90;;;33.20;;
61009;SDS011;46897;55.340;86.082;2023-04-01T23:30:53;100.97;;;32.85;;
61009;SDS011;46897;55.340;86.082;2023-04-01T23:33:23;116.47;;;34.00;;
61009;SDS011;46897;55.340;86.082;2023-04-01T23:35:57;117.07;;;35.03;;
61009;SDS011;46897;55.340;86.082;2023-04-01T23:38:34;109.55;;;33.17;;
61009;SDS011;46897;55.340;86.082;2023-04-01T23:41:06;131.20;;;37.88;;
61009;SDS011;46897;55.340;86.082;2023-04-01T23:43:38;120.68;;;35.22;;
61009;SDS011;46897;55.340;86.082;2023-04-01T23:46:10;112.25;;;33.13;;
61009;SDS011;46897;55.340;86.082;2023-04-01T23:48:50;119.15;;;31.85;;
61009;SDS011;46897;55.340;86.082;2023-04-01T23:51:21;117.57;;;32.75;;
61009;SDS011;46897;55.340;86.082;2023-04-01T23:53:58;87.55;;;25.65;;
